Esquina — 2DOU6 — position and weather

sailwx.info

Track history (hours):
 
Tides and Currents Weather Stations Pressure Air Temp Water Temp Dewpoint Dewpoint Depression Visibility Wind Speed Wind Dir Waves Ship Positions

Esquina

Last reported at 2017-Apr-25 10:51 UTC. Time now 2017-Apr-26 08:03 UTC.
Position N 47°43' W 003°21'.

Type: Other ship. MMSI: 235080801.

Date/timePositionNaut miles runAvg speedWind from/ knotsBaromVisibWave heightAir tempDewpointWater temp
2017-Apr-25 10:51N 47°43' W 003°21'1 2.6
2017-Apr-25 10:30N 47°42' W 003°22'611.9
2017-Apr-25 10:00N 47°38' W 003°15'1 1.8
2017-Apr-25 09:30N 47°38' W 003°16'2 4.5
2017-Apr-25 09:00N 47°39' W 003°19'1 1.5
2017-Apr-25 08:30N 47°40' W 003°18'1 1.9
2017-Apr-25 08:00N 47°39' W 003°17'3 5.3
2017-Apr-25 07:30N 47°37' W 003°16'1 1.3
2017-Apr-25 07:00N 47°37' W 003°15'1 1.5
2017-Apr-25 06:30N 47°37' W 003°14'2 3.0
2017-Apr-25 06:00N 47°38' W 003°13'1 2.0
2017-Apr-25 05:28N 47°39' W 003°12'0 0.0
2017-Apr-25 04:58N 47°39' W 003°12'0 0.0
2017-Apr-25 04:28N 47°39' W 003°12'0 0.0
2017-Apr-25 03:58N 47°39' W 003°12'0 0.0
2017-Apr-25 03:28N 47°39' W 003°12'0 0.0
2017-Apr-25 02:58N 47°39' W 003°12'0 0.0
2017-Apr-25 02:28N 47°39' W 003°12'0 0.0
2017-Apr-25 01:58N 47°39' W 003°12'0 0.0
2017-Apr-25 01:28N 47°39' W 003°12'0 0.0
2017-Apr-25 00:58N 47°39' W 003°12'0 0.0
2017-Apr-25 00:28N 47°39' W 003°12'0 0.0
2017-Apr-24 23:58N 47°39' W 003°12'0 0.0
2017-Apr-24 23:28N 47°39' W 003°12'0 0.0
2017-Apr-24 22:58N 47°39' W 003°12'0 0.0
2017-Apr-24 22:28N 47°39' W 003°12'0 0.0
2017-Apr-24 21:58N 47°39' W 003°12'0 0.0
2017-Apr-24 21:28N 47°39' W 003°12'0 0.0
2017-Apr-24 20:58N 47°39' W 003°12'0 0.0
2017-Apr-24 20:28N 47°39' W 003°12'0 0.0
2017-Apr-24 19:58N 47°39' W 003°12'0 0.0
2017-Apr-24 19:28N 47°39' W 003°12'0 0.0
2017-Apr-24 18:58N 47°39' W 003°12'0 0.0
2017-Apr-24 18:28N 47°39' W 003°12'0 0.0
2017-Apr-24 17:58N 47°39' W 003°12'0 0.0
2017-Apr-24 17:28N 47°39' W 003°12'0 0.0
2017-Apr-24 16:58N 47°39' W 003°12'0 0.0
2017-Apr-24 16:28N 47°39' W 003°12'0 0.0
2017-Apr-24 15:58N 47°39' W 003°12'0 0.4
2017-Apr-24 15:29N 47°39' W 003°13'  
2017-Apr-20 10:01N 47°39' W 003°13'0 0.1
2017-Apr-20 09:58N 47°39' W 003°13'0 0.1
2017-Apr-20 09:28N 47°39' W 003°13'1 3.1
2017-Apr-20 09:00N 47°38' W 003°14'3 6.7
2017-Apr-20 08:30N 47°39' W 003°18'4 7.7
2017-Apr-20 08:00N 47°42' W 003°22'  
Track history (hours):
 
Tides and Currents Weather Stations Pressure Air Temp Water Temp Dewpoint Dewpoint Depression Visibility Wind Speed Wind Dir Waves Ship Positions

Esquina

Last reported at 2017-Apr-25 10:51 UTC. Time now 2017-Apr-26 08:03 UTC.
Position N 47°43' W 003°21'.

Type: Other ship. MMSI: 235080801.

Date/timePositionNaut miles runAvg speedWind from/ knotsBaromVisibWave heightAir tempDewpointWater temp
2017-Apr-25 10:51N 47°43' W 003°21'1 2.6
2017-Apr-25 10:30N 47°42' W 003°22'611.9
2017-Apr-25 10:00N 47°38' W 003°15'1 1.8
2017-Apr-25 09:30N 47°38' W 003°16'2 4.5
2017-Apr-25 09:00N 47°39' W 003°19'1 1.5
2017-Apr-25 08:30N 47°40' W 003°18'1 1.9
2017-Apr-25 08:00N 47°39' W 003°17'3 5.3
2017-Apr-25 07:30N 47°37' W 003°16'1 1.3
2017-Apr-25 07:00N 47°37' W 003°15'1 1.5
2017-Apr-25 06:30N 47°37' W 003°14'2 3.0
2017-Apr-25 06:00N 47°38' W 003°13'1 2.0
2017-Apr-25 05:28N 47°39' W 003°12'0 0.0
2017-Apr-25 04:58N 47°39' W 003°12'0 0.0
2017-Apr-25 04:28N 47°39' W 003°12'0 0.0
2017-Apr-25 03:58N 47°39' W 003°12'0 0.0
2017-Apr-25 03:28N 47°39' W 003°12'0 0.0
2017-Apr-25 02:58N 47°39' W 003°12'0 0.0
2017-Apr-25 02:28N 47°39' W 003°12'0 0.0
2017-Apr-25 01:58N 47°39' W 003°12'0 0.0
2017-Apr-25 01:28N 47°39' W 003°12'0 0.0
2017-Apr-25 00:58N 47°39' W 003°12'0 0.0
2017-Apr-25 00:28N 47°39' W 003°12'0 0.0
2017-Apr-24 23:58N 47°39' W 003°12'0 0.0
2017-Apr-24 23:28N 47°39' W 003°12'0 0.0
2017-Apr-24 22:58N 47°39' W 003°12'0 0.0
2017-Apr-24 22:28N 47°39' W 003°12'0 0.0
2017-Apr-24 21:58N 47°39' W 003°12'0 0.0
2017-Apr-24 21:28N 47°39' W 003°12'0 0.0
2017-Apr-24 20:58N 47°39' W 003°12'0 0.0
2017-Apr-24 20:28N 47°39' W 003°12'0 0.0
2017-Apr-24 19:58N 47°39' W 003°12'0 0.0
2017-Apr-24 19:28N 47°39' W 003°12'0 0.0
2017-Apr-24 18:58N 47°39' W 003°12'0 0.0
2017-Apr-24 18:28N 47°39' W 003°12'0 0.0
2017-Apr-24 17:58N 47°39' W 003°12'0 0.0
2017-Apr-24 17:28N 47°39' W 003°12'0 0.0
2017-Apr-24 16:58N 47°39' W 003°12'0 0.0
2017-Apr-24 16:28N 47°39' W 003°12'0 0.0
2017-Apr-24 15:58N 47°39' W 003°12'0 0.4
2017-Apr-24 15:29N 47°39' W 003°13'  
2017-Apr-20 10:01N 47°39' W 003°13'0 0.1
2017-Apr-20 09:58N 47°39' W 003°13'0 0.1
2017-Apr-20 09:28N 47°39' W 003°13'1 3.1
2017-Apr-20 09:00N 47°38' W 003°14'3 6.7
2017-Apr-20 08:30N 47°39' W 003°18'4 7.7
2017-Apr-20 08:00N 47°42' W 003°22'  

Dump ship's entire track history